sensor_id;sensor_type;location;lat;lon;timestamp;P1;durP1;ratioP1;P2;durP2;ratioP2
42964;SDS011;28604;51.204;22.552;2023-05-20T00:01:28;25.77;;;13.80;;
42964;SDS011;28604;51.204;22.552;2023-05-20T00:03:53;20.50;;;13.38;;
42964;SDS011;28604;51.204;22.552;2023-05-20T00:06:19;23.70;;;13.85;;
42964;SDS011;28604;51.204;22.552;2023-05-20T00:08:45;21.23;;;12.50;;
42964;SDS011;28604;51.204;22.552;2023-05-20T00:11:11;22.60;;;12.60;;
42964;SDS011;28604;51.204;22.552;2023-05-20T00:13:37;21.42;;;12.57;;
42964;SDS011;28604;51.204;22.552;2023-05-20T00:16:04;22.92;;;14.00;;
42964;SDS011;28604;51.204;22.552;2023-05-20T00:18:30;19.15;;;12.60;;
42964;SDS011;28604;51.204;22.552;2023-05-20T00:20:57;18.95;;;13.65;;
42964;SDS011;28604;51.204;22.552;2023-05-20T00:23:23;16.50;;;11.50;;
42964;SDS011;28604;51.204;22.552;2023-05-20T00:25:49;21.05;;;13.88;;
42964;SDS011;28604;51.204;22.552;2023-05-20T00:28:15;20.42;;;13.23;;
42964;SDS011;28604;51.204;22.552;2023-05-20T00:30:41;17.88;;;12.63;;
42964;SDS011;28604;51.204;22.552;2023-05-20T00:33:06;19.77;;;13.48;;
42964;SDS011;28604;51.204;22.552;2023-05-20T00:35:32;26.35;;;14.07;;
42964;SDS011;28604;51.204;22.552;2023-05-20T00:37:58;22.08;;;13.45;;
42964;SDS011;28604;51.204;22.552;2023-05-20T00:40:25;25.77;;;14.63;;
42964;SDS011;28604;51.204;22.552;2023-05-20T00:42:50;18.15;;;12.63;;
42964;SDS011;28604;51.204;22.552;2023-05-20T00:45:17;18.38;;;12.50;;
42964;SDS011;28604;51.204;22.552;2023-05-20T00:47:42;24.80;;;15.23;;
42964;SDS011;28604;51.204;22.552;2023-05-20T00:50:09;24.42;;;14.52;;
42964;SDS011;28604;51.204;22.552;2023-05-20T00:52:35;18.65;;;13.02;;
42964;SDS011;28604;51.204;22.552;2023-05-20T00:55:02;24.55;;;13.88;;
42964;SDS011;28604;51.204;22.552;2023-05-20T00:57:28;24.30;;;13.93;;
42964;SDS011;28604;51.204;22.552;2023-05-20T00:59:55;20.13;;;13.10;;
42964;SDS011;28604;51.204;22.552;2023-05-20T01:02:21;21.58;;;12.50;;
42964;SDS011;28604;51.204;22.552;2023-05-20T01:04:48;18.60;;;12.40;;
42964;SDS011;28604;51.204;22.552;2023-05-20T01:07:15;19.73;;;12.73;;
42964;SDS011;28604;51.204;22.552;2023-05-20T01:09:42;19.92;;;12.30;;
42964;SDS011;28604;51.204;22.552;2023-05-20T01:12:30;23.60;;;13.75;;
42964;SDS011;28604;51.204;22.552;2023-05-20T01:15:09;18.05;;;12.98;;
42964;SDS011;28604;51.204;22.552;2023-05-20T01:17:38;19.60;;;11.75;;
42964;SDS011;28604;51.204;22.552;2023-05-20T01:20:06;18.42;;;12.45;;
42964;SDS011;28604;51.204;22.552;2023-05-20T01:22:46;21.92;;;11.98;;
42964;SDS011;28604;51.204;22.552;2023-05-20T01:25:19;19.42;;;12.13;;
42964;SDS011;28604;51.204;22.552;2023-05-20T01:27:46;20.42;;;12.43;;
42964;SDS011;28604;51.204;22.552;2023-05-20T01:30:13;20.60;;;12.75;;
42964;SDS011;28604;51.204;22.552;2023-05-20T01:32:41;23.38;;;13.93;;
42964;SDS011;28604;51.204;22.552;2023-05-20T01:35:12;22.95;;;13.10;;
42964;SDS011;28604;51.204;22.552;2023-05-20T01:37:41;18.27;;;12.85;;
42964;SDS011;28604;51.204;22.552;2023-05-20T01:40:11;17.52;;;12.05;;
42964;SDS011;28604;51.204;22.552;2023-05-20T01:42:40;21.17;;;12.75;;
42964;SDS011;28604;51.204;22.552;2023-05-20T01:45:08;20.13;;;11.73;;
42964;SDS011;28604;51.204;22.552;2023-05-20T01:47:34;18.13;;;12.38;;
42964;SDS011;28604;51.204;22.552;2023-05-20T01:50:01;20.38;;;12.93;;
42964;SDS011;28604;51.204;22.552;2023-05-20T01:52:27;18.70;;;13.60;;
42964;SDS011;28604;51.204;22.552;2023-05-20T01:54:53;15.70;;;10.20;;
42964;SDS011;28604;51.204;22.552;2023-05-20T01:57:20;14.77;;;11.07;;
42964;SDS011;28604;51.204;22.552;2023-05-20T01:59:49;20.13;;;12.75;;
42964;SDS011;28604;51.204;22.552;2023-05-20T02:02:15;20.67;;;14.07;;
42964;SDS011;28604;51.204;22.552;2023-05-20T02:04:42;23.38;;;13.63;;
42964;SDS011;28604;51.204;22.552;2023-05-20T02:07:13;18.83;;;13.63;;
42964;SDS011;28604;51.204;22.552;2023-05-20T02:09:40;16.38;;;12.50;;
42964;SDS011;28604;51.204;22.552;2023-05-20T02:12:06;19.30;;;14.52;;
42964;SDS011;28604;51.204;22.552;2023-05-20T02:14:34;14.20;;;10.82;;
42964;SDS011;28604;51.204;22.552;2023-05-20T02:16:59;17.90;;;12.70;;
42964;SDS011;28604;51.204;22.552;2023-05-20T02:19:26;19.17;;;12.93;;
42964;SDS011;28604;51.204;22.552;2023-05-20T02:21:52;21.20;;;12.85;;
42964;SDS011;28604;51.204;22.552;2023-05-20T02:24:18;14.98;;;11.82;;
42964;SDS011;28604;51.204;22.552;2023-05-20T02:26:46;20.88;;;13.93;;
42964;SDS011;28604;51.204;22.552;2023-05-20T02:29:15;17.25;;;13.00;;
42964;SDS011;28604;51.204;22.552;2023-05-20T02:31:41;16.65;;;12.23;;
42964;SDS011;28604;51.204;22.552;2023-05-20T02:34:07;15.52;;;11.80;;
42964;SDS011;28604;51.204;22.552;2023-05-20T02:36:33;15.55;;;11.95;;
42964;SDS011;28604;51.204;22.552;2023-05-20T02:39:00;19.02;;;12.68;;
42964;SDS011;28604;51.204;22.552;2023-05-20T02:41:26;19.27;;;13.45;;
42964;SDS011;28604;51.204;22.552;2023-05-20T02:43:52;14.00;;;10.85;;
42964;SDS011;28604;51.204;22.552;2023-05-20T02:46:19;13.70;;;11.35;;
42964;SDS011;28604;51.204;22.552;2023-05-20T02:48:45;14.90;;;11.75;;
42964;SDS011;28604;51.204;22.552;2023-05-20T02:51:11;18.13;;;12.90;;
42964;SDS011;28604;51.204;22.552;2023-05-20T02:53:37;20.98;;;13.15;;
42964;SDS011;28604;51.204;22.552;2023-05-20T02:56:03;16.85;;;11.82;;
42964;SDS011;28604;51.204;22.552;2023-05-20T02:58:30;14.05;;;11.45;;
42964;SDS011;28604;51.204;22.552;2023-05-20T03:00:57;13.40;;;10.93;;
42964;SDS011;28604;51.204;22.552;2023-05-20T03:03:24;15.98;;;11.43;;
42964;SDS011;28604;51.204;22.552;2023-05-20T03:05:51;10.70;;;9.45;;
42964;SDS011;28604;51.204;22.552;2023-05-20T03:08:18;14.20;;;10.07;;
42964;SDS011;28604;51.204;22.552;2023-05-20T03:10:46;12.02;;;9.73;;
42964;SDS011;28604;51.204;22.552;2023-05-20T03:13:12;13.77;;;9.65;;
42964;SDS011;28604;51.204;22.552;2023-05-20T03:15:42;14.38;;;11.13;;
42964;SDS011;28604;51.204;22.552;2023-05-20T03:18:10;13.45;;;10.43;;
42964;SDS011;28604;51.204;22.552;2023-05-20T03:20:36;12.80;;;10.18;;
42964;SDS011;28604;51.204;22.552;2023-05-20T03:23:05;12.63;;;9.50;;
42964;SDS011;28604;51.204;22.552;2023-05-20T03:25:31;12.90;;;10.13;;
42964;SDS011;28604;51.204;22.552;2023-05-20T03:27:58;13.73;;;10.68;;
42964;SDS011;28604;51.204;22.552;2023-05-20T03:30:24;16.65;;;12.05;;
42964;SDS011;28604;51.204;22.552;2023-05-20T03:32:55;14.85;;;11.77;;
42964;SDS011;28604;51.204;22.552;2023-05-20T03:35:22;18.75;;;11.95;;
42964;SDS011;28604;51.204;22.552;2023-05-20T03:37:49;12.10;;;10.73;;
42964;SDS011;28604;51.204;22.552;2023-05-20T03:40:20;13.00;;;10.55;;
42964;SDS011;28604;51.204;22.552;2023-05-20T03:42:47;11.45;;;10.25;;
42964;SDS011;28604;51.204;22.552;2023-05-20T03:45:16;14.27;;;10.63;;
42964;SDS011;28604;51.204;22.552;2023-05-20T03:48:14;14.35;;;9.27;;
42964;SDS011;28604;51.204;22.552;2023-05-20T03:50:41;13.85;;;10.80;;
42964;SDS011;28604;51.204;22.552;2023-05-20T03:53:08;14.77;;;10.45;;
42964;SDS011;28604;51.204;22.552;2023-05-20T03:55:37;13.82;;;10.32;;
42964;SDS011;28604;51.204;22.552;2023-05-20T03:58:04;17.33;;;10.57;;
42964;SDS011;28604;51.204;22.552;2023-05-20T04:00:31;16.30;;;11.38;;
42964;SDS011;28604;51.204;22.552;2023-05-20T04:02:57;12.82;;;10.60;;
42964;SDS011;28604;51.204;22.552;2023-05-20T04:05:23;15.15;;;11.05;;
42964;SDS011;28604;51.204;22.552;2023-05-20T04:07:50;13.65;;;11.18;;
42964;SDS011;28604;51.204;22.552;2023-05-20T04:10:18;19.08;;;10.52;;
42964;SDS011;28604;51.204;22.552;2023-05-20T04:12:44;12.68;;;10.73;;
42964;SDS011;28604;51.204;22.552;2023-05-20T04:15:11;15.25;;;11.68;;
42964;SDS011;28604;51.204;22.552;2023-05-20T04:17:46;11.40;;;10.23;;
42964;SDS011;28604;51.204;22.552;2023-05-20T04:20:13;12.55;;;11.20;;
42964;SDS011;28604;51.204;22.552;2023-05-20T04:22:39;12.98;;;10.48;;
42964;SDS011;28604;51.204;22.552;2023-05-20T04:25:05;11.80;;;9.90;;
42964;SDS011;28604;51.204;22.552;2023-05-20T04:27:32;11.63;;;10.40;;
42964;SDS011;28604;51.204;22.552;2023-05-20T04:29:58;13.07;;;10.75;;
42964;SDS011;28604;51.204;22.552;2023-05-20T04:32:27;11.52;;;10.32;;
42964;SDS011;28604;51.204;22.552;2023-05-20T04:34:53;15.68;;;10.80;;
42964;SDS011;28604;51.204;22.552;2023-05-20T04:37:21;11.75;;;9.50;;
42964;SDS011;28604;51.204;22.552;2023-05-20T04:39:47;14.35;;;10.48;;
42964;SDS011;28604;51.204;22.552;2023-05-20T04:42:14;10.52;;;9.43;;
42964;SDS011;28604;51.204;22.552;2023-05-20T04:44:44;10.88;;;9.82;;
42964;SDS011;28604;51.204;22.552;2023-05-20T04:47:10;12.43;;;9.55;;
42964;SDS011;28604;51.204;22.552;2023-05-20T04:49:37;12.45;;;9.32;;
42964;SDS011;28604;51.204;22.552;2023-05-20T04:52:03;12.43;;;9.77;;
42964;SDS011;28604;51.204;22.552;2023-05-20T04:54:30;12.95;;;8.48;;
42964;SDS011;28604;51.204;22.552;2023-05-20T04:56:57;10.68;;;9.25;;
42964;SDS011;28604;51.204;22.552;2023-05-20T04:59:23;9.48;;;8.25;;
42964;SDS011;28604;51.204;22.552;2023-05-20T05:01:50;10.18;;;9.15;;
42964;SDS011;28604;51.204;22.552;2023-05-20T05:04:16;10.48;;;9.15;;
42964;SDS011;28604;51.204;22.552;2023-05-20T05:06:42;12.45;;;9.50;;
42964;SDS011;28604;51.204;22.552;2023-05-20T05:09:08;15.27;;;9.82;;
42964;SDS011;28604;51.204;22.552;2023-05-20T05:11:36;10.43;;;9.52;;
42964;SDS011;28604;51.204;22.552;2023-05-20T05:14:04;9.95;;;8.70;;
42964;SDS011;28604;51.204;22.552;2023-05-20T05:16:31;12.57;;;9.57;;
42964;SDS011;28604;51.204;22.552;2023-05-20T05:18:57;9.50;;;8.70;;
42964;SDS011;28604;51.204;22.552;2023-05-20T05:21:27;9.77;;;8.90;;
42964;SDS011;28604;51.204;22.552;2023-05-20T05:23:52;9.05;;;8.20;;
42964;SDS011;28604;51.204;22.552;2023-05-20T05:26:19;11.63;;;8.98;;
42964;SDS011;28604;51.204;22.552;2023-05-20T05:28:45;12.32;;;8.65;;
42964;SDS011;28604;51.204;22.552;2023-05-20T05:31:12;9.95;;;8.05;;
42964;SDS011;28604;51.204;22.552;2023-05-20T05:33:37;13.35;;;8.98;;
42964;SDS011;28604;51.204;22.552;2023-05-20T05:36:04;14.00;;;9.02;;
42964;SDS011;28604;51.204;22.552;2023-05-20T05:38:31;9.13;;;8.27;;
42964;SDS011;28604;51.204;22.552;2023-05-20T05:40:57;10.10;;;9.13;;
42964;SDS011;28604;51.204;22.552;2023-05-20T05:43:23;10.55;;;8.07;;
42964;SDS011;28604;51.204;22.552;2023-05-20T05:45:50;15.85;;;9.30;;
42964;SDS011;28604;51.204;22.552;2023-05-20T05:48:17;9.95;;;8.93;;
42964;SDS011;28604;51.204;22.552;2023-05-20T05:50:43;11.75;;;9.27;;
42964;SDS011;28604;51.204;22.552;2023-05-20T05:53:11;11.95;;;10.70;;
42964;SDS011;28604;51.204;22.552;2023-05-20T05:55:39;11.50;;;8.73;;
42964;SDS011;28604;51.204;22.552;2023-05-20T05:58:06;9.70;;;8.73;;
42964;SDS011;28604;51.204;22.552;2023-05-20T06:00:32;9.57;;;8.60;;
42964;SDS011;28604;51.204;22.552;2023-05-20T06:02:58;10.25;;;8.18;;
42964;SDS011;28604;51.204;22.552;2023-05-20T06:05:31;8.93;;;7.68;;
42964;SDS011;28604;51.204;22.552;2023-05-20T06:07:57;8.35;;;7.63;;
42964;SDS011;28604;51.204;22.552;2023-05-20T06:10:24;8.40;;;7.57;;
42964;SDS011;28604;51.204;22.552;2023-05-20T06:12:50;12.13;;;7.38;;
42964;SDS011;28604;51.204;22.552;2023-05-20T06:15:17;11.85;;;6.97;;
42964;SDS011;28604;51.204;22.552;2023-05-20T06:17:43;9.32;;;7.22;;
42964;SDS011;28604;51.204;22.552;2023-05-20T06:20:10;8.77;;;7.65;;
42964;SDS011;28604;51.204;22.552;2023-05-20T06:22:36;11.70;;;6.63;;
42964;SDS011;28604;51.204;22.552;2023-05-20T06:25:02;10.55;;;7.28;;
42964;SDS011;28604;51.204;22.552;2023-05-20T06:27:32;8.43;;;6.65;;
42964;SDS011;28604;51.204;22.552;2023-05-20T06:29:58;9.80;;;6.72;;
42964;SDS011;28604;51.204;22.552;2023-05-20T06:32:24;8.52;;;6.50;;
42964;SDS011;28604;51.204;22.552;2023-05-20T06:34:51;12.27;;;9.85;;
42964;SDS011;28604;51.204;22.552;2023-05-20T06:37:17;6.47;;;5.90;;
42964;SDS011;28604;51.204;22.552;2023-05-20T06:39:43;7.88;;;7.07;;
42964;SDS011;28604;51.204;22.552;2023-05-20T06:42:11;11.30;;;6.70;;
42964;SDS011;28604;51.204;22.552;2023-05-20T06:44:42;11.75;;;6.93;;
42964;SDS011;28604;51.204;22.552;2023-05-20T06:47:32;7.40;;;6.70;;
42964;SDS011;28604;51.204;22.552;2023-05-20T06:49:58;13.50;;;6.25;;
42964;SDS011;28604;51.204;22.552;2023-05-20T06:52:24;14.07;;;6.93;;
42964;SDS011;28604;51.204;22.552;2023-05-20T06:54:51;8.43;;;6.03;;
42964;SDS011;28604;51.204;22.552;2023-05-20T06:57:18;13.73;;;7.85;;
42964;SDS011;28604;51.204;22.552;2023-05-20T06:59:44;10.65;;;7.55;;
42964;SDS011;28604;51.204;22.552;2023-05-20T07:02:11;15.95;;;7.45;;
42964;SDS011;28604;51.204;22.552;2023-05-20T07:04:38;8.02;;;6.90;;
42964;SDS011;28604;51.204;22.552;2023-05-20T07:07:04;10.95;;;7.15;;
42964;SDS011;28604;51.204;22.552;2023-05-20T07:09:31;7.15;;;6.55;;
42964;SDS011;28604;51.204;22.552;2023-05-20T07:11:56;7.82;;;7.03;;
42964;SDS011;28604;51.204;22.552;2023-05-20T07:14:22;9.88;;;7.05;;
42964;SDS011;28604;51.204;22.552;2023-05-20T07:16:49;8.13;;;7.38;;
42964;SDS011;28604;51.204;22.552;2023-05-20T07:19:16;8.00;;;7.20;;
42964;SDS011;28604;51.204;22.552;2023-05-20T07:21:42;7.78;;;7.22;;
42964;SDS011;28604;51.204;22.552;2023-05-20T07:24:17;13.68;;;6.88;;
42964;SDS011;28604;51.204;22.552;2023-05-20T07:26:42;8.30;;;7.32;;
42964;SDS011;28604;51.204;22.552;2023-05-20T07:29:09;7.07;;;6.38;;
42964;SDS011;28604;51.204;22.552;2023-05-20T07:31:36;9.65;;;7.15;;
42964;SDS011;28604;51.204;22.552;2023-05-20T07:34:03;6.97;;;6.50;;
42964;SDS011;28604;51.204;22.552;2023-05-20T07:36:29;8.13;;;6.90;;
42964;SDS011;28604;51.204;22.552;2023-05-20T07:38:59;8.00;;;6.95;;
42964;SDS011;28604;51.204;22.552;2023-05-20T07:41:25;7.72;;;6.68;;
42964;SDS011;28604;51.204;22.552;2023-05-20T07:43:51;10.70;;;6.93;;
42964;SDS011;28604;51.204;22.552;2023-05-20T07:46:17;15.50;;;7.43;;
42964;SDS011;28604;51.204;22.552;2023-05-20T07:48:43;9.95;;;7.35;;
42964;SDS011;28604;51.204;22.552;2023-05-20T07:51:10;9.55;;;6.53;;
42964;SDS011;28604;51.204;22.552;2023-05-20T07:53:36;8.57;;;6.63;;
42964;SDS011;28604;51.204;22.552;2023-05-20T07:56:03;9.38;;;6.55;;
42964;SDS011;28604;51.204;22.552;2023-05-20T07:58:30;10.63;;;7.75;;
42964;SDS011;28604;51.204;22.552;2023-05-20T08:00:56;15.60;;;6.78;;
42964;SDS011;28604;51.204;22.552;2023-05-20T08:03:23;9.15;;;6.25;;
42964;SDS011;28604;51.204;22.552;2023-05-20T08:05:56;9.57;;;6.78;;
42964;SDS011;28604;51.204;22.552;2023-05-20T08:08:23;10.00;;;6.50;;
42964;SDS011;28604;51.204;22.552;2023-05-20T08:10:56;13.80;;;6.75;;
42964;SDS011;28604;51.204;22.552;2023-05-20T08:13:24;11.85;;;6.90;;
42964;SDS011;28604;51.204;22.552;2023-05-20T08:15:54;6.68;;;5.95;;
42964;SDS011;28604;51.204;22.552;2023-05-20T08:18:21;7.53;;;5.72;;
42964;SDS011;28604;51.204;22.552;2023-05-20T08:20:47;12.25;;;6.63;;
42964;SDS011;28604;51.204;22.552;2023-05-20T08:23:13;12.82;;;6.25;;
42964;SDS011;28604;51.204;22.552;2023-05-20T08:25:39;6.97;;;6.22;;
42964;SDS011;28604;51.204;22.552;2023-05-20T08:28:07;11.95;;;5.60;;
42964;SDS011;28604;51.204;22.552;2023-05-20T08:30:35;7.68;;;6.10;;
42964;SDS011;28604;51.204;22.552;2023-05-20T08:33:01;16.60;;;6.72;;
42964;SDS011;28604;51.204;22.552;2023-05-20T08:35:29;9.40;;;6.38;;
42964;SDS011;28604;51.204;22.552;2023-05-20T08:37:55;11.07;;;6.22;;
42964;SDS011;28604;51.204;22.552;2023-05-20T08:40:21;7.40;;;5.82;;
42964;SDS011;28604;51.204;22.552;2023-05-20T08:42:48;7.28;;;6.03;;
42964;SDS011;28604;51.204;22.552;2023-05-20T08:45:17;11.02;;;5.85;;
42964;SDS011;28604;51.204;22.552;2023-05-20T08:47:46;7.55;;;6.35;;
42964;SDS011;28604;51.204;22.552;2023-05-20T08:50:13;11.98;;;5.55;;
42964;SDS011;28604;51.204;22.552;2023-05-20T08:52:43;12.30;;;5.57;;
42964;SDS011;28604;51.204;22.552;2023-05-20T08:55:13;6.50;;;5.68;;
42964;SDS011;28604;51.204;22.552;2023-05-20T08:57:50;9.50;;;6.22;;
42964;SDS011;28604;51.204;22.552;2023-05-20T09:00:19;11.50;;;6.10;;
42964;SDS011;28604;51.204;22.552;2023-05-20T09:02:48;7.03;;;5.72;;
42964;SDS011;28604;51.204;22.552;2023-05-20T09:05:13;7.15;;;5.80;;
42964;SDS011;28604;51.204;22.552;2023-05-20T09:07:40;6.63;;;5.97;;
42964;SDS011;28604;51.204;22.552;2023-05-20T09:10:07;6.75;;;5.40;;
42964;SDS011;28604;51.204;22.552;2023-05-20T09:12:34;5.80;;;4.95;;
42964;SDS011;28604;51.204;22.552;2023-05-20T09:15:00;10.05;;;5.28;;
42964;SDS011;28604;51.204;22.552;2023-05-20T09:17:26;7.20;;;5.55;;
42964;SDS011;28604;51.204;22.552;2023-05-20T09:19:52;7.10;;;5.88;;
42964;SDS011;28604;51.204;22.552;2023-05-20T09:22:22;8.40;;;6.13;;
42964;SDS011;28604;51.204;22.552;2023-05-20T09:24:49;6.85;;;5.78;;
42964;SDS011;28604;51.204;22.552;2023-05-20T09:27:15;13.50;;;6.22;;
42964;SDS011;28604;51.204;22.552;2023-05-20T09:29:41;5.55;;;4.95;;
42964;SDS011;28604;51.204;22.552;2023-05-20T09:32:11;8.75;;;5.65;;
42964;SDS011;28604;51.204;22.552;2023-05-20T09:34:38;6.03;;;5.40;;
42964;SDS011;28604;51.204;22.552;2023-05-20T09:37:06;10.10;;;5.80;;
42964;SDS011;28604;51.204;22.552;2023-05-20T09:39:33;7.78;;;6.45;;
42964;SDS011;28604;51.204;22.552;2023-05-20T09:42:17;9.20;;;6.18;;
42964;SDS011;28604;51.204;22.552;2023-05-20T09:44:49;11.77;;;6.15;;
42964;SDS011;28604;51.204;22.552;2023-05-20T09:47:15;10.30;;;5.95;;
42964;SDS011;28604;51.204;22.552;2023-05-20T09:49:42;9.07;;;6.07;;
42964;SDS011;28604;51.204;22.552;2023-05-20T09:52:11;12.85;;;6.35;;
42964;SDS011;28604;51.204;22.552;2023-05-20T09:54:38;6.25;;;5.75;;
42964;SDS011;28604;51.204;22.552;2023-05-20T09:57:04;9.88;;;6.40;;
42964;SDS011;28604;51.204;22.552;2023-05-20T09:59:31;8.57;;;7.00;;
42964;SDS011;28604;51.204;22.552;2023-05-20T10:02:00;16.45;;;7.20;;
42964;SDS011;28604;51.204;22.552;2023-05-20T10:04:26;12.95;;;6.18;;
42964;SDS011;28604;51.204;22.552;2023-05-20T10:12:52;10.15;;;7.28;;
42964;SDS011;28604;51.204;22.552;2023-05-20T10:15:36;9.30;;;8.45;;
42964;SDS011;28604;51.204;22.552;2023-05-20T10:20:45;9.85;;;7.45;;
42964;SDS011;28604;51.204;22.552;2023-05-20T10:23:22;9.30;;;7.53;;
42964;SDS011;28604;51.204;22.552;2023-05-20T10:25:52;8.48;;;7.68;;
42964;SDS011;28604;51.204;22.552;2023-05-20T10:34:13;11.52;;;7.25;;
42964;SDS011;28604;51.204;22.552;2023-05-20T10:36:43;8.85;;;6.88;;
42964;SDS011;28604;51.204;22.552;2023-05-20T10:39:15;9.17;;;7.37;;
42964;SDS011;28604;51.204;22.552;2023-05-20T10:41:42;15.23;;;8.10;;
42964;SDS011;28604;51.204;22.552;2023-05-20T10:44:08;8.07;;;7.38;;
42964;SDS011;28604;51.204;22.552;2023-05-20T10:46:34;9.15;;;7.78;;
42964;SDS011;28604;51.204;22.552;2023-05-20T10:49:00;9.27;;;7.88;;
42964;SDS011;28604;51.204;22.552;2023-05-20T10:51:28;11.55;;;7.80;;
42964;SDS011;28604;51.204;22.552;2023-05-20T10:53:56;9.40;;;6.80;;
42964;SDS011;28604;51.204;22.552;2023-05-20T10:56:23;8.93;;;7.80;;
42964;SDS011;28604;51.204;22.552;2023-05-20T10:58:50;8.55;;;7.65;;
42964;SDS011;28604;51.204;22.552;2023-05-20T11:01:21;8.13;;;6.70;;
42964;SDS011;28604;51.204;22.552;2023-05-20T11:03:48;10.63;;;7.28;;
42964;SDS011;28604;51.204;22.552;2023-05-20T11:06:16;10.00;;;6.90;;
42964;SDS011;28604;51.204;22.552;2023-05-20T11:08:43;10.15;;;7.40;;
42964;SDS011;28604;51.204;22.552;2023-05-20T11:11:10;9.50;;;7.68;;
42964;SDS011;28604;51.204;22.552;2023-05-20T11:13:37;7.32;;;6.65;;
42964;SDS011;28604;51.204;22.552;2023-05-20T11:16:03;7.47;;;6.75;;
42964;SDS011;28604;51.204;22.552;2023-05-20T11:18:30;13.70;;;6.70;;
42964;SDS011;28604;51.204;22.552;2023-05-20T11:21:00;8.57;;;7.05;;
42964;SDS011;28604;51.204;22.552;2023-05-20T11:23:27;13.23;;;7.20;;
42964;SDS011;28604;51.204;22.552;2023-05-20T11:25:54;8.57;;;6.88;;
42964;SDS011;28604;51.204;22.552;2023-05-20T11:28:21;8.10;;;6.55;;
42964;SDS011;28604;51.204;22.552;2023-05-20T11:30:49;8.90;;;7.30;;
42964;SDS011;28604;51.204;22.552;2023-05-20T11:33:16;10.52;;;6.55;;
42964;SDS011;28604;51.204;22.552;2023-05-20T11:35:47;7.90;;;6.28;;
42964;SDS011;28604;51.204;22.552;2023-05-20T11:38:17;6.80;;;6.15;;
42964;SDS011;28604;51.204;22.552;2023-05-20T11:40:51;8.13;;;7.18;;
42964;SDS011;28604;51.204;22.552;2023-05-20T11:43:18;8.70;;;6.95;;
42964;SDS011;28604;51.204;22.552;2023-05-20T11:45:45;8.32;;;6.72;;
42964;SDS011;28604;51.204;22.552;2023-05-20T11:48:12;7.93;;;6.50;;
42964;SDS011;28604;51.204;22.552;2023-05-20T11:50:41;9.82;;;6.40;;
42964;SDS011;28604;51.204;22.552;2023-05-20T11:53:09;15.15;;;6.60;;
42964;SDS011;28604;51.204;22.552;2023-05-20T11:58:15;8.70;;;6.47;;
42964;SDS011;28604;51.204;22.552;2023-05-20T12:00:46;7.28;;;6.57;;
42964;SDS011;28604;51.204;22.552;2023-05-20T12:03:12;7.65;;;6.15;;
42964;SDS011;28604;51.204;22.552;2023-05-20T12:05:39;7.20;;;6.43;;
42964;SDS011;28604;51.204;22.552;2023-05-20T12:08:05;7.35;;;6.30;;
42964;SDS011;28604;51.204;22.552;2023-05-20T12:10:32;7.03;;;6.40;;
42964;SDS011;28604;51.204;22.552;2023-05-20T12:12:58;7.88;;;6.55;;
42964;SDS011;28604;51.204;22.552;2023-05-20T12:15:24;6.68;;;5.78;;
42964;SDS011;28604;51.204;22.552;2023-05-20T12:17:51;7.03;;;5.75;;
42964;SDS011;28604;51.204;22.552;2023-05-20T12:20:21;8.70;;;6.47;;
42964;SDS011;28604;51.204;22.552;2023-05-20T12:22:48;8.68;;;6.28;;
42964;SDS011;28604;51.204;22.552;2023-05-20T12:25:15;9.35;;;6.00;;
42964;SDS011;28604;51.204;22.552;2023-05-20T12:27:41;6.40;;;5.90;;
42964;SDS011;28604;51.204;22.552;2023-05-20T12:30:16;8.13;;;6.53;;
42964;SDS011;28604;51.204;22.552;2023-05-20T12:32:43;7.22;;;6.50;;
42964;SDS011;28604;51.204;22.552;2023-05-20T12:35:11;9.18;;;5.70;;
42964;SDS011;28604;51.204;22.552;2023-05-20T12:37:37;8.40;;;6.03;;
42964;SDS011;28604;51.204;22.552;2023-05-20T12:40:05;6.75;;;5.57;;
42964;SDS011;28604;51.204;22.552;2023-05-20T12:42:35;9.00;;;4.82;;
42964;SDS011;28604;51.204;22.552;2023-05-20T12:45:02;6.00;;;4.82;;
42964;SDS011;28604;51.204;22.552;2023-05-20T12:47:29;11.50;;;5.45;;
42964;SDS011;28604;51.204;22.552;2023-05-20T12:49:56;6.32;;;4.60;;
42964;SDS011;28604;51.204;22.552;2023-05-20T12:52:21;5.95;;;4.95;;
42964;SDS011;28604;51.204;22.552;2023-05-20T12:54:47;6.88;;;4.40;;
42964;SDS011;28604;51.204;22.552;2023-05-20T12:57:13;5.10;;;4.65;;
42964;SDS011;28604;51.204;22.552;2023-05-20T12:59:40;11.52;;;4.30;;
42964;SDS011;28604;51.204;22.552;2023-05-20T13:02:05;6.60;;;5.97;;
42964;SDS011;28604;51.204;22.552;2023-05-20T13:04:31;7.75;;;4.47;;
42964;SDS011;28604;51.204;22.552;2023-05-20T13:06:57;4.70;;;4.40;;
42964;SDS011;28604;51.204;22.552;2023-05-20T13:09:24;4.55;;;3.85;;
42964;SDS011;28604;51.204;22.552;2023-05-20T13:11:49;6.10;;;4.35;;
42964;SDS011;28604;51.204;22.552;2023-05-20T13:14:15;12.02;;;3.78;;
42964;SDS011;28604;51.204;22.552;2023-05-20T13:16:41;4.10;;;3.85;;
42964;SDS011;28604;51.204;22.552;2023-05-20T13:19:07;9.57;;;4.03;;
42964;SDS011;28604;51.204;22.552;2023-05-20T13:21:33;10.20;;;4.30;;
42964;SDS011;28604;51.204;22.552;2023-05-20T13:23:59;4.85;;;3.72;;
42964;SDS011;28604;51.204;22.552;2023-05-20T13:26:25;5.30;;;3.90;;
42964;SDS011;28604;51.204;22.552;2023-05-20T13:28:51;5.65;;;4.10;;
42964;SDS011;28604;51.204;22.552;2023-05-20T13:31:17;7.97;;;3.58;;
42964;SDS011;28604;51.204;22.552;2023-05-20T13:33:43;4.10;;;3.70;;
42964;SDS011;28604;51.204;22.552;2023-05-20T13:36:09;9.85;;;5.10;;
42964;SDS011;28604;51.204;22.552;2023-05-20T13:38:35;13.48;;;4.85;;
42964;SDS011;28604;51.204;22.552;2023-05-20T13:41:01;5.82;;;3.65;;
42964;SDS011;28604;51.204;22.552;2023-05-20T13:43:27;12.38;;;3.97;;
42964;SDS011;28604;51.204;22.552;2023-05-20T13:45:55;4.15;;;3.75;;
42964;SDS011;28604;51.204;22.552;2023-05-20T13:48:21;8.20;;;3.78;;
42964;SDS011;28604;51.204;22.552;2023-05-20T13:50:46;6.50;;;3.38;;
42964;SDS011;28604;51.204;22.552;2023-05-20T13:53:13;10.52;;;4.60;;
42964;SDS011;28604;51.204;22.552;2023-05-20T13:55:39;9.13;;;4.40;;
42964;SDS011;28604;51.204;22.552;2023-05-20T13:58:05;9.82;;;4.43;;
42964;SDS011;28604;51.204;22.552;2023-05-20T14:00:34;6.28;;;4.40;;
42964;SDS011;28604;51.204;22.552;2023-05-20T14:03:01;8.38;;;4.78;;
42964;SDS011;28604;51.204;22.552;2023-05-20T14:05:32;10.05;;;4.80;;
42964;SDS011;28604;51.204;22.552;2023-05-20T14:07:58;6.10;;;4.75;;
42964;SDS011;28604;51.204;22.552;2023-05-20T14:10:24;9.05;;;4.72;;
42964;SDS011;28604;51.204;22.552;2023-05-20T14:12:51;10.70;;;4.75;;
42964;SDS011;28604;51.204;22.552;2023-05-20T14:15:17;8.60;;;7.15;;
42964;SDS011;28604;51.204;22.552;2023-05-20T14:17:45;8.48;;;4.38;;
42964;SDS011;28604;51.204;22.552;2023-05-20T14:20:11;8.00;;;3.95;;
42964;SDS011;28604;51.204;22.552;2023-05-20T14:22:38;7.35;;;3.72;;
42964;SDS011;28604;51.204;22.552;2023-05-20T14:25:04;5.63;;;3.47;;
42964;SDS011;28604;51.204;22.552;2023-05-20T14:27:30;3.58;;;3.22;;
42964;SDS011;28604;51.204;22.552;2023-05-20T14:29:56;3.35;;;3.15;;
42964;SDS011;28604;51.204;22.552;2023-05-20T14:32:22;3.63;;;3.05;;
42964;SDS011;28604;51.204;22.552;2023-05-20T14:34:48;6.80;;;2.88;;
42964;SDS011;28604;51.204;22.552;2023-05-20T14:37:14;7.00;;;2.72;;
42964;SDS011;28604;51.204;22.552;2023-05-20T14:39:41;6.47;;;2.80;;
42964;SDS011;28604;51.204;22.552;2023-05-20T14:42:07;3.88;;;2.85;;